Peacham, VT (05862)

1:38 PM EDT on August 26, 2016 (GMT -0400)
| | Change Station

Elev -9999 ft 0.00 °N, 0.00 °E | Updated

Clear
Clear
82 °F
Feels Like 82 °F
N
11
Wind Variable Wind from WNW
Gusts 17 mph

Today
High -- | Low -- °F
--% Chance of Precip.
Yesterday
High -- | Low -- °F
Precip. -- in
Pressure 29.99 in
Visibility 10.0 miles
Clouds Scattered Clouds 3600 ft
Scattered Clouds 4600 ft
Heat Index 82 °F
Dew Point 57 °F
Humidity 43%
Rainfall --
Snow Depth Not available.
6:05 AM 7:34 PM
Waning Crescent, 33% visible
METAR KCDA 261715Z AUTO 23007KT 10SM SCT036 SCT046 27/18 A2999 RMK AO2 T02650177
Pressure 29.99 in
Visibility 10.0 miles
Clouds Scattered Clouds 3600 ft
Scattered Clouds 4600 ft
Heat Index 82 °F
Dew Point 57 °F
Humidity 43%
Rainfall --
Snow Depth Not available.
6:05 AM 7:34 PM
Waning Crescent, 33% visible
METAR KCDA 261715Z AUTO 23007KT 10SM SCT036 SCT046 27/18 A2999 RMK AO2 T02650177

10-Day Weather Forecast

Almanac

Astronomy

Aug. 26, 2016 Rise Set
Actual Time
Civil Twilight
Nautical Twilight
Astronomical Twilight
Moon
Length of Visible Light
Length of Day
Tomorrow will be .
, % of the Moon is Illuminated

Today's Extremes

State Highs State Lows

Community

WunderPhotos

Upload Photos

1,935,151 photos uploaded!

WunderBlog® & News

Nearby

Air Quality

  Air Quality AQ Index Pollutant
Not available.

Snow Depth

Station Depth Elevation

Earthquake Activity

City Distance Mag. Time & Date
Minimum magnitude displayed is 2.5.

Coastal Water Temperatures

Place Temperature

Stations

Nearby Weather Stations

Station Location Temp. Windchill Dew Point Humidity Wind Precip. Elev Updated Type
                   

Watches & Warnings

There are currently no watches in effect.